Time;durP1;ratioP1;P1;durP2;ratioP2;P2;SDS_P1;SDS_P2;PMS_P1;PMS_P2;Temp;Humidity;BMP_temperature;BMP_pressure;BME280_temperature;BME280_humidity;BME280_pressure;Samples;Min_cycle;Max_cycle;Signal;HPM_P1;HPM_P2
2023/04/07 00:02:19;;;;;;;7.20;6.50;;;5.70;43.50;;;;;;6275323;28;20473;-62
2023/04/07 00:05:22;;;;;;;5.53;5.03;;;5.80;43.50;;;;;;6275253;28;20497;-62
2023/04/07 00:08:27;;;;;;;6.80;6.07;;;5.70;43.70;;;;;;6275378;28;20477;-62
2023/04/07 00:11:30;;;;;;;7.43;6.50;;;5.70;43.50;;;;;;6275520;28;20476;-63
2023/04/07 00:14:33;;;;;;;5.70;5.20;;;5.70;44.00;;;;;;6275822;28;20470;-63
2023/04/07 00:17:36;;;;;;;6.53;5.83;;;5.70;44.00;;;;;;6276325;28;20466;-63
2023/04/07 00:20:40;;;;;;;6.70;6.10;;;5.60;44.10;;;;;;6274508;28;20612;-62
2023/04/07 00:23:45;;;;;;;8.77;5.93;;;5.60;44.40;;;;;;6277537;28;20476;-62
2023/04/07 00:26:48;;;;;;;7.37;5.60;;;5.60;44.50;;;;;;6283085;28;20466;-62
2023/04/07 00:29:54;;;;;;;7.17;6.13;;;5.50;44.70;;;;;;6282541;28;20492;-62
2023/04/07 00:32:57;;;;;;;6.77;6.10;;;5.40;45.00;;;;;;6276556;28;20784;-62
2023/04/07 00:36:00;;;;;;;6.23;5.63;;;5.40;45.10;;;;;;6274725;28;20476;-62
2023/04/07 00:39:05;;;;;;;9.63;5.97;;;5.40;45.20;;;;;;6274573;28;20608;-62
2023/04/07 00:42:08;;;;;;;7.23;6.10;;;5.40;45.30;;;;;;6274829;28;20470;-63
2023/04/07 00:45:11;;;;;;;9.43;5.60;;;5.30;45.40;;;;;;6274346;28;20485;-63
2023/04/07 00:48:15;;;;;;;6.47;5.87;;;5.40;45.30;;;;;;6274807;28;20485;-63
2023/04/07 00:51:20;;;;;;;6.57;5.90;;;5.40;45.30;;;;;;6274439;28;20481;-63
2023/04/07 00:54:25;;;;;;;5.70;5.30;;;5.30;45.50;;;;;;6274336;28;20490;-63
2023/04/07 00:57:28;;;;;;;6.57;5.90;;;5.30;45.60;;;;;;6274660;28;20485;-62
2023/04/07 01:00:32;;;;;;;6.40;5.83;;;5.30;45.70;;;;;;6274345;28;21000;-62
2023/04/07 01:03:44;;;;;;;6.63;6.03;;;5.30;45.90;;;;;;6274700;28;20462;-62
2023/04/07 01:06:51;;;;;;;7.00;6.27;;;5.30;45.90;;;;;;6274712;28;20890;-62
2023/04/07 01:10:01;;;;;;;8.07;7.30;;;5.30;45.90;;;;;;6274621;28;20462;-62
2023/04/07 01:13:13;;;;;;;7.10;6.47;;;5.20;46.00;;;;;;6274245;28;20599;-63
2023/04/07 01:16:27;;;;;;;7.57;6.87;;;5.20;46.20;;;;;;6274158;28;20543;-63
2023/04/07 01:19:36;;;;;;;8.23;7.53;;;5.20;46.30;;;;;;6274393;28;20507;-63
2023/04/07 01:22:46;;;;;;;7.50;6.80;;;5.20;46.50;;;;;;6274027;28;20481;-63
2023/04/07 01:26:07;;;;;;;7.33;5.60;;;5.20;46.80;;;;;;6274261;28;20534;-63
2023/04/07 01:29:33;;;;;;;6.80;6.17;;;5.10;46.90;;;;;;6273962;28;20470;-62
2023/04/07 01:32:39;;;;;;;8.17;6.10;;;5.10;46.80;;;;;;6271356;28;20477;-62
2023/04/07 01:35:43;;;;;;;6.87;6.00;;;5.10;46.90;;;;;;6273868;28;20478;-62
2023/04/07 01:38:47;;;;;;;9.90;6.23;;;5.10;47.10;;;;;;6274065;28;20508;-62
2023/04/07 01:41:52;;;;;;;6.17;5.57;;;5.20;47.40;;;;;;6273811;28;20466;-62
2023/04/07 01:44:59;;;;;;;6.60;5.93;;;5.10;47.60;;;;;;6273508;28;20493;-62
2023/04/07 01:48:05;;;;;;;7.07;5.90;;;5.00;47.60;;;;;;6274000;28;20466;-62
2023/04/07 01:51:10;;;;;;;6.37;5.77;;;5.10;47.80;;;;;;6273483;28;20490;-62
2023/04/07 01:54:13;;;;;;;6.70;6.20;;;5.00;47.80;;;;;;6264670;28;20488;-62
2023/04/07 01:57:17;;;;;;;7.70;7.00;;;5.00;47.80;;;;;;6274387;28;20489;-62
2023/04/07 02:00:21;;;;;;;8.63;7.73;;;5.00;48.00;;;;;;6278134;28;20486;-62
2023/04/07 02:03:31;;;;;;;8.30;7.37;;;5.00;48.10;;;;;;6277830;28;20473;-62
2023/04/07 02:06:38;;;;;;;7.40;6.80;;;5.00;48.10;;;;;;6285162;22;20466;-62
2023/04/07 02:09:43;;;;;;;10.27;8.00;;;5.00;48.20;;;;;;6277555;28;20478;-62
2023/04/07 02:12:47;;;;;;;7.57;6.67;;;4.90;48.30;;;;;;6278034;28;20465;-62
2023/04/07 02:15:53;;;;;;;7.93;7.23;;;5.00;48.50;;;;;;6277626;28;20466;-62
2023/04/07 02:18:57;;;;;;;6.80;6.17;;;4.90;48.30;;;;;;6277858;28;20433;-62
2023/04/07 02:22:01;;;;;;;10.30;6.80;;;4.90;48.40;;;;;;6277681;28;20454;-62
2023/04/07 02:25:21;;;;;;;9.00;6.77;;;4.90;48.60;;;;;;6277548;28;20471;-62
2023/04/07 02:28:24;;;;;;;7.13;5.43;;;4.90;48.50;;;;;;6277384;28;20474;-62
2023/04/07 02:31:29;;;;;;;7.50;6.80;;;4.90;48.30;;;;;;6277290;28;20474;-62
2023/04/07 02:34:32;;;;;;;6.67;5.97;;;4.90;48.30;;;;;;6277643;28;20481;-62
2023/04/07 02:37:36;;;;;;;6.90;6.30;;;4.90;48.60;;;;;;6277414;28;20473;-61
2023/04/07 02:40:39;;;;;;;7.43;6.57;;;4.90;48.80;;;;;;6277248;28;20682;-61
2023/04/07 02:43:42;;;;;;;7.17;6.37;;;4.90;48.90;;;;;;6277211;28;20478;-62
2023/04/07 02:46:46;;;;;;;7.90;7.20;;;4.90;48.80;;;;;;6280576;28;20481;-61
2023/04/07 02:49:49;;;;;;;5.93;5.53;;;5.00;48.80;;;;;;6283574;28;20482;-62
2023/04/07 02:52:53;;;;;;;6.47;5.87;;;4.90;49.00;;;;;;6280527;28;20485;-63
2023/04/07 02:55:56;;;;;;;6.03;5.43;;;4.90;48.80;;;;;;6272341;28;20482;-63
2023/04/07 02:58:59;;;;;;;6.83;6.13;;;4.90;48.80;;;;;;6276564;28;20849;-63
2023/04/07 03:02:03;;;;;;;5.83;5.40;;;4.90;48.90;;;;;;6276845;28;20470;-62
2023/04/07 03:05:08;;;;;;;5.77;5.27;;;4.90;49.10;;;;;;6276158;28;20553;-62
2023/04/07 03:08:11;;;;;;;6.87;6.00;;;4.90;49.20;;;;;;6276513;28;20466;-62
2023/04/07 03:11:15;;;;;;;7.03;6.27;;;4.90;49.50;;;;;;6275788;28;20474;-62
2023/04/07 03:14:18;;;;;;;6.67;5.90;;;4.80;49.60;;;;;;6276432;28;20473;-62
2023/04/07 03:17:22;;;;;;;9.17;5.70;;;4.90;49.50;;;;;;6276400;28;20481;-62
2023/04/07 03:20:27;;;;;;;8.00;6.57;;;4.80;49.70;;;;;;6275686;28;20561;-62
2023/04/07 03:23:30;;;;;;;7.27;6.57;;;4.80;49.80;;;;;;6276216;28;20478;-62
2023/04/07 03:26:33;;;;;;;7.63;6.93;;;4.80;50.20;;;;;;6276077;28;20465;-62
2023/04/07 03:29:36;;;;;;;6.20;5.57;;;4.80;50.20;;;;;;6276204;28;20984;-62
2023/04/07 03:32:41;;;;;;;7.03;5.77;;;4.80;50.20;;;;;;6275876;28;20466;-62
2023/04/07 03:35:44;;;;;;;6.77;6.17;;;4.90;50.30;;;;;;6275611;28;20555;-62
2023/04/07 03:38:48;;;;;;;7.17;6.10;;;4.90;50.20;;;;;;6275775;28;20545;-62
2023/04/07 03:41:51;;;;;;;6.97;6.37;;;4.90;50.00;;;;;;6277571;28;20470;-62
2023/04/07 03:44:54;;;;;;;6.73;6.10;;;4.90;50.10;;;;;;6277333;28;20486;-62
2023/04/07 03:47:59;;;;;;;6.73;6.13;;;4.90;50.20;;;;;;6276332;28;20492;-63
2023/04/07 03:51:03;;;;;;;6.07;5.57;;;5.00;50.20;;;;;;6275262;28;20841;-62
2023/04/07 03:54:06;;;;;;;8.70;7.50;;;5.00;50.00;;;;;;6275479;28;20470;-63
2023/04/07 03:57:09;;;;;;;8.03;6.37;;;5.00;49.90;;;;;;6275524;28;20481;-62
2023/04/07 04:00:13;;;;;;;7.03;6.33;;;5.00;49.90;;;;;;6275398;28;20481;-62
2023/04/07 04:03:18;;;;;;;6.50;5.77;;;5.00;50.10;;;;;;6261819;28;20506;-63
2023/04/07 04:06:21;;;;;;;6.70;5.80;;;5.00;50.30;;;;;;6274515;28;20490;-62
2023/04/07 04:09:24;;;;;;;7.13;6.50;;;5.00;50.20;;;;;;6275199;28;20958;-62
2023/04/07 04:12:28;;;;;;;6.23;5.63;;;5.00;50.00;;;;;;6275204;28;20474;-63
2023/04/07 04:15:31;;;;;;;7.77;6.17;;;5.10;49.90;;;;;;6274733;28;20470;-63
2023/04/07 04:18:35;;;;;;;6.77;6.00;;;5.10;49.80;;;;;;6274716;28;20492;-62
2023/04/07 04:21:38;;;;;;;9.33;6.10;;;5.20;49.60;;;;;;6274058;28;20466;-62
2023/04/07 04:24:42;;;;;;;6.30;5.70;;;5.20;49.60;;;;;;6274602;28;20486;-62
2023/04/07 04:27:45;;;;;;;7.10;6.33;;;5.20;50.30;;;;;;6274304;28;20764;-63
2023/04/07 04:30:48;;;;;;;6.97;6.37;;;5.20;49.80;;;;;;6274883;28;20438;-64
2023/04/07 04:33:52;;;;;;;7.20;6.23;;;5.20;49.80;;;;;;6274516;28;20448;-62
2023/04/07 04:36:56;;;;;;;7.60;6.20;;;5.20;49.80;;;;;;6274600;28;20453;-63
2023/04/07 04:39:59;;;;;;;6.63;6.03;;;5.20;50.10;;;;;;6274206;28;20457;-63
2023/04/07 04:43:05;;;;;;;5.30;4.90;;;5.30;50.10;;;;;;6274890;28;20461;-63
2023/04/07 04:46:08;;;;;;;6.90;5.67;;;5.30;50.10;;;;;;6274323;28;20459;-63
2023/04/07 04:49:14;;;;;;;7.90;7.30;;;5.30;50.10;;;;;;6274137;28;20954;-63
2023/04/07 04:52:17;;;;;;;6.27;5.80;;;5.30;50.10;;;;;;6274133;28;20559;-63
2023/04/07 04:55:20;;;;;;;7.80;6.40;;;5.40;50.20;;;;;;6274417;28;20837;-63
2023/04/07 04:58:24;;;;;;;8.80;6.30;;;5.40;50.30;;;;;;6273772;28;20470;-63
2023/04/07 05:01:27;;;;;;;8.10;5.87;;;5.50;50.50;;;;;;6274682;28;20809;-63
2023/04/07 05:04:32;;;;;;;7.00;6.30;;;5.50;50.70;;;;;;6265052;28;21317;-63
2023/04/07 05:07:36;;;;;;;7.53;6.07;;;5.50;50.60;;;;;;6274733;28;20478;-62
2023/04/07 05:10:40;;;;;;;19.87;13.13;;;5.50;50.50;;;;;;6275042;28;20492;-62
2023/04/07 05:13:43;;;;;;;9.07;8.20;;;5.60;50.60;;;;;;6273875;28;20485;-63
2023/04/07 05:16:46;;;;;;;15.17;9.30;;;5.70;50.40;;;;;;6273895;28;20965;-63
2023/04/07 05:19:50;;;;;;;7.40;6.70;;;5.80;50.10;;;;;;6273621;28;20747;-63
2023/04/07 05:22:54;;;;;;;10.07;6.97;;;5.90;49.70;;;;;;6273817;28;20462;-63
2023/04/07 05:25:57;;;;;;;7.67;6.07;;;5.90;49.50;;;;;;6273757;28;20466;-63
2023/04/07 05:29:00;;;;;;;6.40;5.90;;;5.90;49.30;;;;;;6273799;28;20473;-63
2023/04/07 05:32:05;;;;;;;7.90;6.50;;;6.00;49.20;;;;;;6274488;28;20461;-62
2023/04/07 05:35:10;;;;;;;7.47;6.20;;;6.10;49.40;;;;;;6278560;28;20465;-63
2023/04/07 05:38:15;;;;;;;7.20;6.50;;;6.20;49.40;;;;;;6278704;28;20477;-63
2023/04/07 05:41:18;;;;;;;7.33;6.63;;;6.20;49.30;;;;;;6278865;28;20482;-63
2023/04/07 05:44:21;;;;;;;8.83;6.63;;;6.30;49.80;;;;;;6278485;28;20615;-64
2023/04/07 05:47:24;;;;;;;10.87;6.40;;;6.40;49.10;;;;;;6278719;28;20473;-63
2023/04/07 05:50:29;;;;;;;7.30;6.17;;;6.50;48.80;;;;;;6278237;28;21005;-64
2023/04/07 05:53:32;;;;;;;7.77;7.07;;;6.50;48.80;;;;;;6278105;28;20493;-63
2023/04/07 05:56:35;;;;;;;8.33;6.93;;;6.60;48.60;;;;;;6278299;28;20488;-64
2023/04/07 05:59:38;;;;;;;9.97;6.10;;;6.70;48.50;;;;;;6278349;28;20477;-63
2023/04/07 06:02:42;;;;;;;7.53;6.70;;;6.80;48.40;;;;;;6278141;28;20481;-63
2023/04/07 06:05:47;;;;;;;6.97;6.37;;;6.90;48.40;;;;;;6277401;28;20984;-62
2023/04/07 06:08:50;;;;;;;9.73;7.57;;;6.90;48.20;;;;;;6273566;28;20497;-62
2023/04/07 06:11:53;;;;;;;8.80;7.60;;;7.10;48.40;;;;;;6277379;28;20631;-63
2023/04/07 06:14:56;;;;;;;10.53;8.23;;;7.20;48.10;;;;;;6278077;28;20474;-62
2023/04/07 06:18:00;;;;;;;9.93;8.00;;;7.30;47.70;;;;;;6278656;28;20484;-63
2023/04/07 06:21:04;;;;;;;10.90;8.10;;;7.50;47.60;;;;;;6280713;28;20504;-63
2023/04/07 06:24:08;;;;;;;10.60;7.70;;;7.70;47.10;;;;;;6278479;28;20497;-63
2023/04/07 06:27:11;;;;;;;9.20;6.70;;;7.90;46.70;;;;;;6278034;28;20470;-63
2023/04/07 06:30:15;;;;;;;11.03;8.47;;;8.30;46.30;;;;;;6277577;28;20481;-63
2023/04/07 06:33:22;;;;;;;12.63;8.03;;;8.80;45.20;;;;;;6278265;28;20988;-63
2023/04/07 06:36:27;;;;;;;8.30;7.60;;;9.60;43.90;;;;;;6277246;28;20961;-63
2023/04/07 06:39:31;;;;;;;9.93;7.50;;;10.90;41.60;;;;;;6277150;28;20817;-63
2023/04/07 06:42:34;;;;;;;8.70;7.80;;;12.20;39.50;;;;;;6277471;28;20826;-64
2023/04/07 06:45:37;;;;;;;9.53;7.17;;;13.40;37.20;;;;;;6276804;28;20478;-63
2023/04/07 06:48:40;;;;;;;9.17;7.27;;;14.70;35.20;;;;;;6277379;28;20473;-64
2023/04/07 06:51:45;;;;;;;13.37;9.40;;;16.00;33.00;;;;;;6277237;28;20480;-63
2023/04/07 06:54:48;;;;;;;12.30;8.73;;;16.90;30.70;;;;;;6277209;28;20466;-63
2023/04/07 06:57:51;;;;;;;12.77;9.60;;;17.80;29.60;;;;;;6277107;28;20442;-64
2023/04/07 07:00:54;;;;;;;14.00;9.63;;;18.70;28.50;;;;;;6277142;28;20446;-64
2023/04/07 07:03:59;;;;;;;9.13;8.23;;;19.00;27.60;;;;;;6276662;28;20477;-64
2023/04/07 07:07:04;;;;;;;16.27;10.67;;;19.20;27.40;;;;;;6276733;28;20232;-65
2023/04/07 07:10:10;;;;;;;11.63;10.43;;;19.00;26.80;;;;;;6277098;28;20227;-63
2023/04/07 07:13:13;;;;;;;11.43;10.10;;;18.60;26.80;;;;;;6276713;28;20228;-63
2023/04/07 07:16:16;;;;;;;13.47;10.77;;;18.50;27.00;;;;;;6276311;28;20601;-63
2023/04/07 07:19:20;;;;;;;16.43;12.80;;;19.00;26.20;;;;;;6276485;28;20238;-63
2023/04/07 07:22:24;;;;;;;13.30;11.47;;;19.50;25.80;;;;;;6276386;28;20709;-64
2023/04/07 07:25:28;;;;;;;15.50;11.03;;;19.50;25.20;;;;;;6276241;28;20580;-63
2023/04/07 07:28:31;;;;;;;14.07;12.77;;;19.20;25.70;;;;;;6277966;28;20227;-64
2023/04/07 07:31:34;;;;;;;13.77;12.37;;;19.10;25.70;;;;;;6277490;28;20227;-62
2023/04/07 07:34:37;;;;;;;16.07;11.60;;;19.80;25.90;;;;;;6277895;28;20227;-63
2023/04/07 07:37:43;;;;;;;12.40;11.13;;;21.70;24.80;;;;;;6278854;28;20238;-63
2023/04/07 07:40:46;;;;;;;13.10;11.70;;;24.20;23.20;;;;;;6274036;28;20522;-64
2023/04/07 07:43:50;;;;;;;18.50;12.03;;;25.90;21.10;;;;;;6279256;28;20234;-64
2023/04/07 07:46:53;;;;;;;15.07;12.80;;;27.20;20.00;;;;;;6275609;28;20234;-63
2023/04/07 07:49:56;;;;;;;14.93;13.40;;;28.40;18.80;;;;;;6275046;28;20372;-63
2023/04/07 07:53:01;;;;;;;16.57;12.87;;;29.30;17.20;;;;;;6275600;28;20237;-65
2023/04/07 07:56:04;;;;;;;14.83;12.43;;;30.10;17.00;;;;;;6274574;28;20226;-64
2023/04/07 07:59:07;;;;;;;12.85;11.70;;;31.10;16.40;;;;;;6275315;28;20238;-64
2023/04/07 08:02:10;;;;;;;13.48;12.10;;;31.50;15.30;;;;;;6275250;28;20576;-63
2023/04/07 08:05:13;;;;;;;12.52;11.32;;;31.10;15.00;;;;;;6274607;28;20250;-63
2023/04/07 08:08:18;;;;;;;11.75;10.65;;;31.50;14.70;;;;;;6275088;28;20249;-64
2023/04/07 08:11:22;;;;;;;11.32;10.23;;;32.20;13.20;;;;;;6281070;28;20226;-65
2023/04/07 08:14:25;;;;;;;11.52;10.15;;;32.30;12.90;;;;;;6279161;28;20678;-65
2023/04/07 08:17:28;;;;;;;9.45;8.65;;;31.60;11.70;;;;;;6278046;28;20540;-65
2023/04/07 08:20:31;;;;;;;12.17;10.60;;;30.40;11.50;;;;;;6285768;28;20236;-65
2023/04/07 08:23:36;;;;;;;10.67;9.57;;;28.30;12.80;;;;;;6282125;28;20556;-64
2023/04/07 08:26:39;;;;;;;9.67;8.83;;;28.80;13.60;;;;;;6279377;28;20233;-64
2023/04/07 08:29:42;;;;;;;9.02;8.13;;;30.70;12.00;;;;;;6285785;28;20230;-65
2023/04/07 08:32:45;;;;;;;8.80;8.10;;;32.50;11.30;;;;;;6286435;28;20222;-64
2023/04/07 08:35:48;;;;;;;9.55;8.65;;;31.20;11.10;;;;;;6286186;28;20232;-64
2023/04/07 08:38:53;;;;;;;8.70;7.60;;;31.40;10.70;;;;;;6299130;28;20238;-64
2023/04/07 08:42:01;;;;;;;8.07;7.28;;;32.20;10.60;;;;;;6281244;28;20223;-66
2023/04/07 08:45:06;;;;;;;8.70;7.65;;;32.50;10.30;;;;;;6273876;28;20245;-63
2023/04/07 08:48:16;;;;;;;8.73;7.93;;;34.80;9.80;;;;;;6274050;28;20229;-64
2023/04/07 08:51:27;;;;;;;14.27;9.85;;;36.30;9.40;;;;;;6273918;28;20249;-64
2023/04/07 08:54:32;;;;;;;9.77;8.88;;;38.40;8.70;;;;;;6274193;28;20670;-65
2023/04/07 08:57:37;;;;;;;9.77;8.90;;;37.10;8.10;;;;;;6274102;28;20218;-65
2023/04/07 09:00:41;;;;;;;9.15;8.25;;;34.50;9.00;;;;;;6274243;28;20238;-65
2023/04/07 09:03:45;;;;;;;7.97;7.28;;;34.60;9.00;;;;;;6273249;28;20238;-64
2023/04/07 09:06:49;;;;;;;9.23;7.60;;;33.10;8.20;;;;;;6274359;28;20207;-64
2023/04/07 09:09:55;;;;;;;7.90;7.20;;;32.40;9.10;;;;;;6278787;28;20260;-66
2023/04/07 09:12:58;;;;;;;8.07;7.18;;;32.60;9.10;;;;;;6278609;28;20522;-63
2023/04/07 09:16:02;;;;;;;7.90;6.80;;;31.80;9.30;;;;;;6286663;28;20214;-64
2023/04/07 09:19:06;;;;;;;8.82;7.80;;;31.50;9.90;;;;;;6284702;28;20618;-63
2023/04/07 09:22:11;;;;;;;7.80;7.18;;;31.90;10.00;;;;;;6290510;28;20235;-63
2023/04/07 09:25:18;;;;;;;7.60;7.00;;;33.60;9.20;;;;;;6286054;28;20591;-63
2023/04/07 09:28:22;;;;;;;8.10;7.00;;;33.00;8.60;;;;;;6283448;28;20235;-63
2023/04/07 09:31:44;;;;;;;7.65;7.03;;;31.10;9.70;;;;;;6288505;28;20371;-64
2023/04/07 09:34:58;;;;;;;8.53;7.73;;;29.30;10.80;;;;;;6253713;28;20247;-64
2023/04/07 09:38:06;;;;;;;7.97;7.20;;;28.10;12.00;;;;;;6253951;28;20239;-64
2023/04/07 09:41:13;;;;;;;6.90;6.30;;;28.00;11.80;;;;;;6261191;28;20223;-64
2023/04/07 09:44:16;;;;;;;8.07;7.33;;;27.80;12.20;;;;;;6288776;28;20653;-64
2023/04/07 09:47:27;;;;;;;8.07;7.40;;;27.90;12.10;;;;;;6282960;28;20235;-64
2023/04/07 09:50:34;;;;;;;7.00;6.40;;;29.40;11.90;;;;;;6278296;28;20324;-64
2023/04/07 09:53:42;;;;;;;7.00;6.40;;;30.90;10.80;;;;;;6277817;28;20231;-64
2023/04/07 09:56:47;;;;;;;6.93;6.32;;;31.10;9.70;;;;;;6279171;28;20306;-65
2023/04/07 09:59:54;;;;;;;7.20;6.60;;;29.60;10.50;;;;;;6277834;28;20230;-65
2023/04/07 10:02:58;;;;;;;7.60;7.00;;;28.70;11.00;;;;;;6278673;28;20226;-65
2023/04/07 10:06:02;;;;;;;7.00;6.40;;;26.80;11.60;;;;;;6302468;28;20240;-66
2023/04/07 10:09:05;;;;;;;6.93;6.33;;;25.40;12.50;;;;;;6302439;28;20576;-64
2023/04/07 10:12:10;;;;;;;7.10;6.40;;;24.60;13.30;;;;;;6302376;28;20541;-65
2023/04/07 10:15:14;;;;;;;7.60;6.83;;;23.90;14.00;;;;;;6291795;28;20231;-65
2023/04/07 10:18:20;;;;;;;7.57;6.80;;;23.30;14.30;;;;;;6277014;28;20238;-64
2023/04/07 10:21:23;;;;;;;7.20;6.40;;;23.50;14.50;;;;;;6277216;28;20235;-66
2023/04/07 10:24:44;;;;;;;8.03;7.23;;;23.50;14.50;;;;;;6277476;28;20242;-65
2023/04/07 10:27:51;;;;;;;7.33;6.57;;;22.30;14.60;;;;;;6268256;28;20259;-65
2023/04/07 10:30:55;;;;;;;7.67;6.97;;;21.60;14.80;;;;;;6277452;28;20230;-67
2023/04/07 10:34:00;;;;;;;6.13;5.63;;;21.40;15.40;;;;;;6277417;28;20245;-65
2023/04/07 10:37:13;;;;;;;6.20;5.67;;;21.00;15.50;;;;;;6277150;28;20203;-65
2023/04/07 10:40:31;;;;;;;6.90;6.20;;;20.50;15.70;;;;;;6277449;28;20550;-65
2023/04/07 10:43:40;;;;;;;7.83;6.23;;;19.40;16.70;;;;;;6274246;28;20231;-64
2023/04/07 10:47:03;;;;;;;5.63;5.13;;;19.70;16.30;;;;;;6277122;28;20231;-64
2023/04/07 10:50:20;;;;;;;6.07;5.50;;;19.80;16.70;;;;;;6277232;28;20228;-64
2023/04/07 10:53:23;;;;;;;5.33;4.83;;;19.70;16.40;;;;;;6252305;28;20232;-64
2023/04/07 10:56:26;;;;;;;5.20;4.70;;;19.20;16.50;;;;;;6252198;28;20232;-63
2023/04/07 10:59:31;;;;;;;5.43;4.93;;;19.00;16.80;;;;;;6252367;28;20228;-63
2023/04/07 11:02:35;;;;;;;7.20;5.40;;;19.20;17.10;;;;;;6252213;28;20250;-66
2023/04/07 11:05:39;;;;;;;6.70;5.20;;;19.70;16.60;;;;;;6251232;28;20690;-63
2023/04/07 11:08:43;;;;;;;6.50;5.87;;;20.30;16.60;;;;;;6251393;28;20687;-61
2023/04/07 11:11:51;;;;;;;6.47;5.23;;;20.80;16.60;;;;;;6251579;28;20283;-63
2023/04/07 11:14:56;;;;;;;6.10;5.60;;;21.10;15.90;;;;;;6258635;28;20232;-63
2023/04/07 11:18:10;;;;;;;6.40;5.80;;;21.20;15.80;;;;;;6275924;28;20228;-65
2023/04/07 11:21:18;;;;;;;7.00;6.40;;;21.40;15.50;;;;;;6276069;28;20548;-63
2023/04/07 11:24:36;;;;;;;6.97;6.07;;;21.40;15.30;;;;;;6276384;28;20231;-62
2023/04/07 11:27:39;;;;;;;5.60;5.20;;;20.90;15.30;;;;;;6275822;28;20686;-62
2023/04/07 11:30:50;;;;;;;4.97;4.47;;;20.80;15.60;;;;;;6280694;28;20226;-64
2023/04/07 11:33:55;;;;;;;6.43;5.80;;;21.20;15.90;;;;;;6300400;28;20929;-62
2023/04/07 11:37:18;;;;;;;5.77;5.17;;;21.00;15.30;;;;;;6300724;28;20207;-65
2023/04/07 11:40:33;;;;;;;7.00;6.23;;;20.40;15.90;;;;;;6297823;28;20242;-63
2023/04/07 11:43:36;;;;;;;6.40;5.10;;;20.20;16.20;;;;;;6273931;28;20275;-64
2023/04/07 11:46:54;;;;;;;6.27;5.77;;;20.00;16.50;;;;;;6293142;28;20226;-63
2023/04/07 11:49:58;;;;;;;5.70;5.20;;;20.00;16.70;;;;;;6275333;28;20707;-62
2023/04/07 11:53:01;;;;;;;6.30;5.70;;;20.10;16.60;;;;;;6257125;28;20284;-62
2023/04/07 11:56:09;;;;;;;5.73;5.23;;;20.30;16.50;;;;;;6275270;28;20341;-62
2023/04/07 11:59:22;;;;;;;4.93;4.53;;;20.50;16.40;;;;;;6275186;28;20238;-63
2023/04/07 12:02:34;;;;;;;5.53;5.03;;;20.40;15.80;;;;;;6275599;28;20238;-62
2023/04/07 12:05:44;;;;;;;7.00;5.60;;;20.80;15.80;;;;;;6274682;28;20346;-63
2023/04/07 12:08:47;;;;;;;6.30;5.70;;;20.70;15.90;;;;;;6275353;28;20235;-63
2023/04/07 12:11:51;;;;;;;5.43;4.77;;;20.10;16.10;;;;;;6285157;28;20519;-60
2023/04/07 12:14:54;;;;;;;6.90;5.93;;;19.30;16.30;;;;;;6291839;28;20230;-60
2023/04/07 12:17:59;;;;;;;5.67;5.17;;;19.30;16.70;;;;;;6274581;28;20219;-61
2023/04/07 12:21:02;;;;;;;5.53;4.97;;;19.80;16.50;;;;;;6274516;28;20667;-61
2023/04/07 12:24:05;;;;;;;5.67;5.10;;;20.40;16.30;;;;;;6274641;28;20235;-61
2023/04/07 12:27:08;;;;;;;6.73;5.83;;;20.60;15.60;;;;;;6274627;28;20235;-60
2023/04/07 12:30:12;;;;;;;8.37;5.50;;;20.80;15.50;;;;;;6274689;28;20227;-61
2023/04/07 12:33:17;;;;;;;40.73;23.80;;;21.00;15.60;;;;;;6274256;28;20416;-60
2023/04/07 12:36:20;;;;;;;55.63;38.70;;;20.70;15.60;;;;;;6275732;28;20235;-60
2023/04/07 12:39:23;;;;;;;10.73;9.67;;;20.70;16.00;;;;;;6276219;28;20231;-60
2023/04/07 12:42:26;;;;;;;31.40;25.13;;;20.80;15.70;;;;;;6274178;28;20580;-60
2023/04/07 12:45:30;;;;;;;21.10;19.37;;;20.90;15.90;;;;;;6274234;28;20239;-60
2023/04/07 12:48:34;;;;;;;9.60;8.80;;;21.00;15.60;;;;;;6274487;28;20314;-60
2023/04/07 12:51:38;;;;;;;15.20;11.23;;;20.90;16.00;;;;;;6274176;28;20243;-60
2023/04/07 12:54:43;;;;;;;10.50;9.40;;;21.00;15.70;;;;;;6274660;28;20232;-60
2023/04/07 12:57:46;;;;;;;8.40;7.60;;;21.10;15.90;;;;;;6274000;28;20250;-60
2023/04/07 13:00:49;;;;;;;5.90;5.40;;;20.90;15.30;;;;;;6274317;28;20231;-60
2023/04/07 13:03:53;;;;;;;15.03;13.63;;;20.60;15.50;;;;;;6274101;28;20524;-60
2023/04/07 13:06:57;;;;;;;7.83;6.67;;;20.70;15.40;;;;;;6280376;28;20195;-61
2023/04/07 13:10:00;;;;;;;6.27;5.67;;;20.90;15.70;;;;;;6281677;28;20219;-60
2023/04/07 13:13:03;;;;;;;8.37;5.57;;;20.80;15.90;;;;;;6287489;28;20202;-63
2023/04/07 13:16:06;;;;;;;6.53;5.20;;;20.90;15.90;;;;;;6281665;28;20286;-62
2023/04/07 13:19:11;;;;;;;5.97;5.47;;;21.20;15.70;;;;;;6273136;28;20211;-62
2023/04/07 13:22:14;;;;;;;7.13;6.33;;;21.50;15.40;;;;;;6279948;28;20533;-61
2023/04/07 13:25:23;;;;;;;6.20;5.70;;;21.70;16.00;;;;;;6282270;28;20223;-62
2023/04/07 13:28:26;;;;;;;8.80;8.00;;;21.30;18.30;;;;;;6284167;28;20662;-61
2023/04/07 13:31:29;;;;;;;8.27;7.47;;;20.10;19.70;;;;;;6282728;28;20220;-65
2023/04/07 13:34:34;;;;;;;8.70;7.90;;;19.80;20.40;;;;;;6287624;28;20292;-63
2023/04/07 13:37:37;;;;;;;7.97;7.17;;;19.70;20.40;;;;;;6277302;28;20235;-64
2023/04/07 13:40:41;;;;;;;7.20;6.60;;;19.30;20.50;;;;;;6279730;28;20246;-62
2023/04/07 13:43:44;;;;;;;7.57;6.90;;;19.50;20.90;;;;;;6273906;28;20243;-62
2023/04/07 13:46:48;;;;;;;7.43;6.73;;;19.50;20.60;;;;;;6276412;28;20724;-63
2023/04/07 13:49:52;;;;;;;7.90;7.20;;;19.40;20.20;;;;;;6284132;28;20718;-63
2023/04/07 13:52:55;;;;;;;7.60;6.90;;;19.10;21.00;;;;;;6285359;28;20567;-64
2023/04/07 13:55:59;;;;;;;7.67;6.87;;;19.20;21.10;;;;;;6288035;28;20227;-62
2023/04/07 13:59:02;;;;;;;8.13;7.20;;;18.90;23.10;;;;;;6284898;28;20215;-64
2023/04/07 14:02:05;;;;;;;9.00;6.93;;;18.60;22.60;;;;;;6289703;28;20559;-63
2023/04/07 14:05:13;;;;;;;7.90;7.10;;;18.30;21.50;;;;;;6294408;28;20260;-62
2023/04/07 14:08:17;;;;;;;10.47;6.90;;;17.70;22.20;;;;;;6303016;28;20237;-62
2023/04/07 14:11:21;;;;;;;7.00;6.20;;;17.50;22.60;;;;;;6302498;28;20230;-63
2023/04/07 14:14:24;;;;;;;7.83;6.20;;;17.80;22.50;;;;;;6299125;28;20550;-61
2023/04/07 14:17:27;;;;;;;8.03;7.13;;;17.70;22.80;;;;;;6277635;28;20246;-61
2023/04/07 14:20:32;;;;;;;7.50;6.80;;;17.90;22.30;;;;;;6277770;28;20227;-60
2023/04/07 14:23:35;;;;;;;8.10;7.10;;;18.10;21.90;;;;;;6277860;28;20458;-60
2023/04/07 14:26:39;;;;;;;6.90;6.30;;;18.10;21.90;;;;;;6279113;28;20782;-61
2023/04/07 14:29:43;;;;;;;7.30;6.60;;;18.00;21.80;;;;;;6292922;28;20219;-61
2023/04/07 14:32:46;;;;;;;7.47;6.67;;;17.80;22.10;;;;;;6289704;28;20488;-60
2023/04/07 14:35:51;;;;;;;8.27;7.47;;;17.90;22.30;;;;;;6280123;28;20259;-60
2023/04/07 14:38:54;;;;;;;8.33;7.40;;;17.70;22.40;;;;;;6277633;28;20261;-60
2023/04/07 14:41:57;;;;;;;8.20;7.07;;;17.50;22.50;;;;;;6277005;28;20227;-60
2023/04/07 14:45:01;;;;;;;9.37;7.67;;;17.60;22.60;;;;;;6276902;28;20482;-61
2023/04/07 14:48:05;;;;;;;7.90;7.13;;;17.60;22.50;;;;;;6277378;28;20463;-60
2023/04/07 14:51:12;;;;;;;8.80;7.60;;;17.50;22.30;;;;;;6284133;28;20241;-60
2023/04/07 14:54:16;;;;;;;8.93;8.00;;;17.30;22.60;;;;;;6285553;28;20470;-60
2023/04/07 14:57:19;;;;;;;8.47;7.23;;;17.50;22.60;;;;;;6299879;28;20481;-61
2023/04/07 15:00:24;;;;;;;7.97;6.80;;;17.50;22.50;;;;;;6277081;28;20782;-60
2023/04/07 15:03:27;;;;;;;9.20;7.37;;;17.50;22.80;;;;;;6279044;28;20476;-62
2023/04/07 15:06:32;;;;;;;10.53;7.63;;;17.40;22.70;;;;;;6287398;28;20223;-61
2023/04/07 15:09:35;;;;;;;7.17;6.47;;;17.40;23.10;;;;;;6276974;28;20552;-61
2023/04/07 15:12:38;;;;;;;8.57;7.50;;;17.20;23.00;;;;;;6277111;28;20227;-61
2023/04/07 15:15:41;;;;;;;8.43;6.90;;;17.20;23.40;;;;;;6287219;28;20468;-60
2023/04/07 15:18:45;;;;;;;10.43;8.63;;;17.00;23.50;;;;;;6301497;28;20927;-60
2023/04/07 15:21:50;;;;;;;7.50;6.80;;;16.90;23.70;;;;;;6300918;28;20470;-61
2023/04/07 15:24:53;;;;;;;8.77;7.27;;;16.80;23.80;;;;;;6296309;28;20476;-61
2023/04/07 15:27:56;;;;;;;8.90;7.60;;;16.50;24.10;;;;;;6301524;28;20437;-61
2023/04/07 15:31:00;;;;;;;8.93;7.67;;;16.50;24.50;;;;;;6301102;28;20956;-61
2023/04/07 15:34:04;;;;;;;9.40;7.97;;;16.30;24.90;;;;;;6301659;28;20557;-61
2023/04/07 15:37:08;;;;;;;9.90;7.60;;;15.90;25.50;;;;;;6300798;28;20460;-61
2023/04/07 15:40:12;;;;;;;9.27;7.53;;;15.70;26.10;;;;;;6301341;28;20441;-62
2023/04/07 15:43:15;;;;;;;9.07;8.17;;;15.50;26.40;;;;;;6267707;28;20458;-61
2023/04/07 15:46:18;;;;;;;10.10;8.50;;;15.50;27.00;;;;;;6276116;28;20481;-61
2023/04/07 15:49:21;;;;;;;10.53;9.00;;;15.30;27.70;;;;;;6279297;28;20477;-62
2023/04/07 15:52:29;;;;;;;10.83;9.63;;;15.20;28.20;;;;;;6276630;28;20535;-62
2023/04/07 15:55:33;;;;;;;12.20;9.53;;;15.20;28.70;;;;;;6275546;28;20473;-62
2023/04/07 15:58:36;;;;;;;15.73;10.63;;;15.10;29.00;;;;;;6275650;28;20980;-62
2023/04/07 16:01:39;;;;;;;10.73;9.63;;;15.10;29.30;;;;;;6275756;28;20474;-62
2023/04/07 16:04:46;;;;;;;14.00;11.53;;;14.80;29.50;;;;;;6275303;28;20481;-62